Old Forge, NY (13420)

5:37 PM EDT on August 31, 2015 (GMT -0400)
Information Center | | Change Station
CLOSE
Current Station
Personal Weather Station
Location: Old Forge, NY
Elevation: 1713 ft
Nearby Weather Stations

Elev 1713 ft 43.71 °N, 74.97 °W | Updated 34 seconds ago

Partly Cloudy
Partly Cloudy
71.0 °F
Feels Like 77 °F
N
0.0
Wind Variable Wind from SW
Gusts 0.0 mph

Today
High -- | Low -- °F
--% Chance of Precip.
Yesterday
High -- | Low -- °F
Precip. -- in
6:21 AM 7:37 PM
Waning Gibbous, 93% visible
Pressure 29.98 in
Visibility 10.0 miles
Clouds Mostly Cloudy 4100 ft
Heat Index 77 °F
Dew Point 54 °F
Humidity 55%
Rainfall in
Snow Depth Not available.
UV 2 out of 12
Pollen 9.30 out of 12
Air Quality Not available.
Flu Activity Not available.
METAR KRME 312053Z 30016G20KT 10SM BKN041 27/18 A2999 RMK AO2 SLP152 T02720183 56004
Pressure 29.98 in
Visibility 10.0 miles
Clouds Mostly Cloudy 4100 ft
Heat Index 77 °F
Dew Point 54 °F
Humidity 55%
Rainfall in
Snow Depth Not available.
UV 2 out of 12
Pollen 9.30 out of 12
Air Quality Not available.
Flu Activity Not available.
METAR KRME 312053Z 30016G20KT 10SM BKN041 27/18 A2999 RMK AO2 SLP152 T02720183 56004

10-Day Weather Forecast

×

Almanac

Astronomy

Aug. 31, 2015 Rise Set
Actual Time
Civil Twilight
Nautical Twilight
Astronomical Twilight
Moon
Length of Visible Light
Length of Day
Tomorrow will be .
, % of the Moon is Illuminated

Today's Extremes

State Highs State Lows

Community

WunderPhotos

Upload Photos

1,851,377 photos uploaded!

WunderBlogs® & News

Nearby

Air Quality

  Air Quality AQ Index Pollutant
Not available.

Snow Depth

Station Depth Elevation

Earthquake Activity

City Distance Mag. Time & Date
Minimum magnitude displayed is 2.5.

Coastal Water Temperatures

Place Temperature

Stations

Nearby Weather Stations

Station Location Temp. Windchill Dew Point Humidity Wind Precip. Elev Updated Type